createdAt,value
2017-06-29T00:00:41.027Z,78.93
2017-06-29T00:03:09.802Z,78.41
2017-06-29T00:05:38.167Z,78.64
2017-06-29T00:08:06.501Z,78.63
2017-06-29T00:10:35.189Z,78.93
2017-06-29T00:13:03.582Z,78.42
2017-06-29T00:15:31.907Z,78.04
2017-06-29T00:18:00.614Z,78.63
2017-06-29T00:20:28.939Z,78.44
2017-06-29T00:22:57.280Z,77.78
2017-06-29T00:25:25.947Z,77.69
2017-06-29T00:27:54.551Z,77.07
2017-06-29T00:30:22.878Z,76.48
2017-06-29T00:32:51.638Z,77.33
2017-06-29T00:35:19.983Z,76.32
2017-06-29T00:37:48.305Z,76.28
2017-06-29T00:40:16.966Z,75.92
2017-06-29T00:42:45.306Z,75.89
2017-06-29T00:45:13.641Z,76.28
2017-06-29T00:47:42.468Z,76.21
2017-06-29T00:50:10.856Z,75.93
2017-06-29T00:52:39.256Z,76.04
2017-06-29T00:55:08.169Z,76.28
2017-06-29T00:57:36.550Z,76.59
2017-06-29T01:00:04.908Z,76.95
2017-06-29T01:02:33.528Z,77.14
2017-06-29T01:05:01.857Z,77.15
2017-06-29T01:07:30.211Z,77.09
2017-06-29T01:09:59.669Z,77.58
2017-06-29T01:12:28.003Z,78.03
2017-06-29T01:14:57.127Z,78.10
2017-06-29T01:17:26.349Z,78.43
2017-06-29T01:19:54.680Z,78.43
2017-06-29T01:22:23.005Z,77.92
2017-06-29T01:24:51.645Z,78.09
2017-06-29T01:27:20.754Z,78.10
2017-06-29T01:29:49.846Z,77.94
2017-06-29T01:32:18.619Z,78.30
2017-06-29T01:34:46.984Z,78.44
2017-06-29T01:37:15.321Z,78.40
2017-06-29T01:39:44.281Z,78.49
2017-06-29T01:42:12.622Z,78.83
2017-06-29T01:44:40.960Z,79.49
2017-06-29T01:47:09.595Z,79.72
2017-06-29T01:49:37.933Z,79.83
2017-06-29T01:52:06.271Z,79.90
2017-06-29T01:54:34.926Z,79.80
2017-06-29T01:57:03.276Z,80.58
2017-06-29T01:59:31.612Z,80.62
2017-06-29T02:02:01.629Z,80.20
2017-06-29T02:04:29.967Z,80.34
2017-06-29T02:06:58.281Z,79.99
2017-06-29T02:09:27.905Z,79.31
2017-06-29T02:11:56.253Z,78.17
2017-06-29T02:14:24.615Z,78.34
2017-06-29T02:16:53.287Z,78.43
2017-06-29T02:19:21.624Z,80.05
2017-06-29T02:21:49.958Z,79.75
2017-06-29T02:24:18.850Z,80.13
2017-06-29T02:26:47.175Z,80.18
2017-06-29T02:29:16.269Z,81.04
2017-06-29T02:31:46.305Z,81.60
2017-06-29T02:34:14.645Z,81.91
2017-06-29T02:36:42.962Z,81.54
2017-06-29T02:39:11.613Z,81.47
2017-06-29T02:41:39.937Z,80.87
2017-06-29T02:44:08.274Z,80.40
2017-06-29T02:46:37.320Z,79.67
2017-06-29T02:49:05.657Z,80.01
2017-06-29T02:51:33.979Z,79.38
2017-06-29T02:54:02.621Z,78.59
2017-06-29T02:56:30.957Z,78.06
2017-06-29T02:58:59.285Z,78.20
2017-06-29T03:01:28.061Z,77.87
2017-06-29T03:03:56.400Z,78.03
2017-06-29T03:06:24.743Z,77.98
2017-06-29T03:08:53.681Z,77.64
2017-06-29T03:11:22.026Z,78.05
2017-06-29T03:13:50.362Z,77.26
2017-06-29T03:16:19.774Z,77.06
2017-06-29T03:18:48.113Z,77.34
2017-06-29T03:21:16.453Z,77.23
2017-06-29T03:23:45.130Z,77.93
2017-06-29T03:26:13.453Z,78.76
2017-06-29T03:28:41.796Z,77.83
2017-06-29T03:31:10.888Z,77.44
2017-06-29T03:33:39.240Z,77.09
2017-06-29T03:36:08.336Z,77.04
2017-06-29T03:38:36.995Z,76.48
2017-06-29T03:41:05.331Z,76.18
2017-06-29T03:43:33.689Z,76.67
2017-06-29T03:46:02.353Z,76.43
2017-06-29T03:48:30.702Z,75.90
2017-06-29T03:50:59.048Z,75.90
2017-06-29T03:53:28.042Z,75.35
2017-06-29T03:55:56.359Z,76.01
2017-06-29T03:58:24.699Z,75.86
2017-06-29T04:00:53.349Z,75.84
2017-06-29T04:03:21.700Z,76.39
2017-06-29T04:05:50.027Z,76.22
2017-06-29T04:08:18.818Z,76.39
2017-06-29T04:10:47.139Z,76.62
2017-06-29T04:13:15.481Z,76.13
2017-06-29T04:15:44.357Z,76.30
2017-06-29T04:18:12.706Z,76.99
2017-06-29T04:20:41.041Z,76.36
2017-06-29T04:23:09.830Z,76.33
2017-06-29T04:25:38.159Z,75.98
2017-06-29T04:28:06.504Z,76.16
2017-06-29T04:30:35.213Z,75.98
2017-06-29T04:33:03.614Z,76.23
2017-06-29T04:35:31.960Z,76.27
2017-06-29T04:38:01.085Z,77.10
2017-06-29T04:40:29.476Z,77.07
2017-06-29T04:42:58.569Z,76.59
2017-06-29T04:45:27.298Z,76.54
2017-06-29T04:47:55.711Z,75.83
2017-06-29T04:50:24.125Z,74.51
2017-06-29T04:52:52.865Z,74.42
2017-06-29T04:55:21.286Z,74.11
2017-06-29T04:57:49.662Z,74.45
2017-06-29T05:00:18.625Z,74.28
2017-06-29T05:02:47.019Z,73.71
2017-06-29T05:05:15.457Z,73.42
2017-06-29T05:07:44.366Z,72.94
2017-06-29T05:10:12.715Z,73.36
2017-06-29T05:12:41.059Z,73.45
2017-06-29T05:15:09.890Z,72.35
2017-06-29T05:17:38.265Z,72.01
2017-06-29T05:20:06.633Z,71.34
2017-06-29T05:22:36.249Z,71.22
2017-06-29T05:25:04.698Z,71.08
2017-06-29T05:27:33.177Z,70.42
2017-06-29T05:30:02.173Z,70.06
2017-06-29T05:32:30.766Z,69.51
2017-06-29T05:34:59.226Z,69.45
2017-06-29T05:37:28.075Z,68.53
2017-06-29T05:39:56.469Z,68.31
2017-06-29T05:42:24.804Z,68.14
2017-06-29T05:44:53.838Z,67.44
2017-06-29T05:47:22.172Z,66.72
2017-06-29T05:49:51.279Z,66.20
2017-06-29T05:52:20.889Z,66.00
2017-06-29T05:54:49.228Z,65.83
2017-06-29T05:57:17.583Z,65.50
2017-06-29T05:59:46.347Z,65.54
2017-06-29T06:02:14.687Z,65.19
2017-06-29T06:04:43.035Z,64.40
2017-06-29T06:07:11.972Z,63.68
2017-06-29T06:09:40.315Z,63.58
2017-06-29T06:12:08.661Z,63.60
2017-06-29T06:14:37.420Z,64.09
2017-06-29T06:17:05.769Z,65.51
2017-06-29T06:19:34.164Z,65.60
2017-06-29T06:22:03.105Z,64.69
2017-06-29T06:24:31.446Z,65.94
2017-06-29T06:26:59.803Z,66.01
2017-06-29T06:29:28.650Z,65.84
2017-06-29T06:31:56.997Z,65.72
2017-06-29T06:34:25.379Z,64.80
2017-06-29T06:36:54.767Z,63.98
2017-06-29T06:39:23.088Z,63.51
2017-06-29T06:41:51.420Z,62.51
2017-06-29T06:44:20.042Z,61.83
2017-06-29T06:46:48.390Z,60.98
2017-06-29T06:49:16.744Z,60.75
2017-06-29T06:51:45.971Z,60.46
2017-06-29T06:54:14.296Z,60.17
2017-06-29T06:56:42.634Z,60.25
2017-06-29T06:59:11.270Z,60.08
2017-06-29T07:01:39.618Z,59.60
2017-06-29T07:04:07.996Z,59.58
2017-06-29T07:06:36.784Z,58.79
2017-06-29T07:09:05.142Z,59.45
2017-06-29T07:11:34.261Z,58.55
2017-06-29T07:14:03.254Z,58.27
2017-06-29T07:16:31.642Z,59.11
2017-06-29T07:19:00.022Z,58.06
2017-06-29T07:21:28.675Z,58.25
2017-06-29T07:23:57.054Z,58.83
2017-06-29T07:26:26.194Z,59.32
2017-06-29T07:28:54.810Z,58.16
2017-06-29T07:31:23.158Z,57.33
2017-06-29T07:33:51.490Z,56.12
2017-06-29T07:36:20.380Z,56.53
2017-06-29T07:38:48.724Z,56.52
2017-06-29T07:41:17.053Z,57.14
2017-06-29T07:43:46.497Z,56.43
2017-06-29T07:46:14.915Z,54.92
2017-06-29T07:48:43.307Z,55.64
2017-06-29T07:51:12.936Z,54.70
2017-06-29T07:53:41.283Z,55.11
2017-06-29T07:56:09.635Z,54.88
2017-06-29T07:58:38.490Z,55.29
2017-06-29T08:01:06.830Z,55.44
2017-06-29T08:03:35.174Z,56.27
2017-06-29T08:06:04.011Z,55.98
2017-06-29T08:08:32.350Z,54.98
2017-06-29T08:11:00.677Z,55.15
2017-06-29T08:13:29.345Z,54.81
2017-06-29T08:15:57.698Z,55.77
2017-06-29T08:18:26.048Z,57.03
2017-06-29T08:20:55.316Z,56.87
2017-06-29T08:23:23.691Z,56.28
2017-06-29T08:25:52.036Z,53.60
2017-06-29T08:28:20.683Z,51.92
2017-06-29T08:30:49.057Z,50.78
2017-06-29T08:33:17.389Z,50.62
2017-06-29T08:35:46.236Z,49.62
2017-06-29T08:38:14.576Z,49.54
2017-06-29T08:40:42.916Z,49.60
2017-06-29T08:43:11.848Z,48.38
2017-06-29T08:45:40.257Z,48.31
2017-06-29T08:48:08.605Z,47.83
2017-06-29T08:50:37.509Z,47.59
2017-06-29T08:53:05.861Z,46.22
2017-06-29T08:55:34.223Z,45.76
2017-06-29T08:58:02.837Z,45.98
2017-06-29T09:00:31.183Z,46.38
2017-06-29T09:02:59.547Z,45.58
2017-06-29T09:05:28.262Z,45.89
2017-06-29T09:07:56.642Z,45.56
2017-06-29T09:10:25.025Z,45.65
2017-06-29T09:12:53.870Z,46.75
2017-06-29T09:15:22.248Z,47.22
2017-06-29T09:17:50.598Z,48.12
2017-06-29T09:20:19.231Z,49.61
2017-06-29T09:22:47.565Z,49.37
2017-06-29T09:25:15.938Z,49.47
2017-06-29T09:27:45.208Z,49.08
2017-06-29T09:30:13.577Z,49.27
2017-06-29T09:32:42.234Z,48.39
2017-06-29T09:35:10.980Z,49.31
2017-06-29T09:37:39.367Z,49.44
2017-06-29T09:40:07.725Z,48.90
2017-06-29T09:42:36.683Z,50.01
2017-06-29T09:45:05.033Z,50.21
2017-06-29T09:47:34.198Z,50.04
2017-06-29T09:50:03.006Z,49.60
2017-06-29T09:52:31.393Z,48.99
2017-06-29T09:54:59.746Z,48.03
2017-06-29T09:57:28.699Z,46.57
2017-06-29T09:59:57.103Z,45.89
2017-06-29T10:02:25.466Z,45.18
2017-06-29T10:04:54.132Z,45.03
2017-06-29T10:07:22.490Z,43.73
2017-06-29T10:09:50.837Z,44.41
2017-06-29T10:12:19.893Z,44.80
2017-06-29T10:14:48.272Z,44.83
2017-06-29T10:17:16.633Z,44.11
2017-06-29T10:19:45.337Z,43.88
2017-06-29T10:22:13.686Z,43.24
2017-06-29T10:24:42.137Z,42.55
2017-06-29T10:27:10.846Z,43.59
2017-06-29T10:29:39.296Z,43.91
2017-06-29T10:32:07.690Z,44.22
2017-06-29T10:34:37.049Z,43.50
2017-06-29T10:37:05.418Z,44.46
2017-06-29T10:39:33.849Z,44.42
2017-06-29T10:42:02.718Z,43.02
2017-06-29T10:44:31.066Z,41.26
2017-06-29T10:46:59.416Z,41.46
2017-06-29T10:49:28.400Z,41.68
2017-06-29T10:51:56.744Z,40.81
2017-06-29T10:54:25.101Z,41.01
2017-06-29T10:56:54.231Z,41.58
2017-06-29T10:59:22.589Z,42.16
2017-06-29T11:01:51.009Z,42.42
2017-06-29T11:04:19.686Z,41.92
2017-06-29T11:06:48.027Z,40.89
2017-06-29T11:09:16.387Z,41.37
2017-06-29T11:11:45.287Z,42.44
2017-06-29T11:14:13.637Z,42.43
2017-06-29T11:16:41.955Z,40.99
2017-06-29T11:19:11.349Z,40.16
2017-06-29T11:21:39.729Z,40.41
2017-06-29T11:24:08.086Z,41.13
2017-06-29T11:26:36.736Z,39.63
2017-06-29T11:29:05.066Z,40.35
2017-06-29T11:31:33.523Z,40.20
2017-06-29T11:34:02.547Z,39.29
2017-06-29T11:36:30.895Z,38.43
2017-06-29T11:38:59.239Z,37.79
2017-06-29T11:41:27.915Z,38.57
2017-06-29T11:43:56.276Z,38.87
2017-06-29T11:46:24.617Z,38.86
2017-06-29T11:48:53.407Z,39.18
2017-06-29T11:51:22.530Z,39.58
2017-06-29T11:53:50.887Z,38.95
2017-06-29T11:56:19.554Z,38.24
2017-06-29T11:58:47.893Z,38.59
2017-06-29T12:01:16.211Z,38.51
2017-06-29T12:03:45.043Z,37.88
2017-06-29T12:06:13.359Z,37.22
2017-06-29T12:08:41.702Z,36.02
2017-06-29T12:11:10.316Z,35.63
2017-06-29T12:13:38.680Z,35.43
2017-06-29T12:16:07.032Z,35.64
2017-06-29T12:18:35.730Z,36.52
2017-06-29T12:21:04.079Z,36.36
2017-06-29T12:23:32.421Z,35.81
2017-06-29T12:26:01.381Z,35.83
2017-06-29T12:28:29.722Z,35.68
2017-06-29T12:30:58.074Z,35.98
2017-06-29T12:33:26.836Z,36.36
2017-06-29T12:35:55.166Z,36.01
2017-06-29T12:38:23.530Z,36.59
2017-06-29T12:40:52.209Z,35.96
2017-06-29T12:43:20.552Z,35.91
2017-06-29T12:45:48.894Z,36.53
2017-06-29T12:48:17.921Z,36.82
2017-06-29T12:50:46.263Z,37.01
2017-06-29T12:53:14.598Z,37.24
2017-06-29T12:55:43.219Z,37.36
2017-06-29T12:58:11.595Z,37.72
2017-06-29T13:00:39.942Z,37.79
2017-06-29T13:03:08.814Z,37.91
2017-06-29T13:05:37.150Z,37.55
2017-06-29T13:08:05.505Z,37.81
2017-06-29T13:10:34.346Z,39.12
2017-06-29T13:13:03.451Z,38.95
2017-06-29T13:15:31.831Z,38.85
2017-06-29T13:18:00.478Z,39.08
2017-06-29T13:20:28.826Z,38.43
2017-06-29T13:25:31.943Z,38.32
2017-06-29T13:28:00.274Z,38.41
2017-06-29T13:30:28.634Z,38.56
2017-06-29T13:32:57.418Z,38.58
2017-06-29T13:35:25.793Z,38.92
2017-06-29T13:37:54.132Z,38.92
2017-06-29T13:40:22.994Z,39.51
2017-06-29T13:42:51.336Z,39.89
2017-06-29T13:45:19.648Z,40.42
2017-06-29T13:47:48.457Z,40.52
2017-06-29T13:50:16.790Z,40.11
2017-06-29T13:52:45.157Z,39.84
2017-06-29T13:55:14.301Z,41.84
2017-06-29T13:57:42.642Z,42.31
2017-06-29T14:00:10.995Z,42.82
2017-06-29T14:02:39.737Z,43.00
2017-06-29T14:05:08.105Z,42.77
2017-06-29T14:07:36.437Z,42.88
2017-06-29T14:10:05.223Z,42.85
2017-06-29T14:12:33.577Z,42.32
2017-06-29T14:15:01.901Z,43.47
2017-06-29T14:17:30.975Z,44.19
2017-06-29T14:19:59.332Z,44.52
2017-06-29T14:22:27.694Z,44.37
2017-06-29T14:24:56.352Z,45.16
2017-06-29T14:27:24.714Z,44.75
2017-06-29T14:29:53.043Z,44.57
2017-06-29T14:32:21.652Z,44.54
2017-06-29T14:34:49.993Z,44.46
2017-06-29T14:37:18.339Z,45.03
2017-06-29T14:39:47.167Z,45.19
2017-06-29T14:42:15.523Z,44.85
2017-06-29T14:44:43.889Z,45.00
2017-06-29T14:47:12.639Z,45.63
2017-06-29T14:49:40.988Z,45.79
2017-06-29T14:52:09.336Z,45.44
2017-06-29T14:54:37.975Z,45.88
2017-06-29T14:57:06.329Z,46.47
2017-06-29T14:59:34.660Z,47.14
2017-06-29T15:02:03.442Z,46.85
2017-06-29T15:04:31.794Z,46.81
2017-06-29T15:07:00.153Z,47.22
2017-06-29T15:09:28.824Z,46.81
2017-06-29T15:11:57.182Z,46.57
2017-06-29T15:14:25.520Z,46.29
2017-06-29T15:16:54.186Z,46.75
2017-06-29T15:19:22.539Z,46.54
2017-06-29T15:21:50.880Z,46.26
2017-06-29T15:24:20.084Z,46.85
2017-06-29T15:26:48.433Z,46.78
2017-06-29T15:29:16.778Z,47.45
2017-06-29T15:31:45.422Z,47.64
2017-06-29T15:34:13.797Z,47.90
2017-06-29T15:36:42.183Z,48.18
2017-06-29T15:39:11.163Z,48.34
2017-06-29T15:41:39.491Z,48.54
2017-06-29T15:44:07.855Z,48.64
2017-06-29T15:46:37.198Z,48.72
2017-06-29T15:49:05.579Z,49.63
2017-06-29T15:51:34.707Z,49.52
2017-06-29T15:54:03.369Z,50.66
2017-06-29T15:56:31.734Z,51.23
2017-06-29T15:59:00.058Z,51.26
2017-06-29T16:01:28.944Z,51.92
2017-06-29T16:03:57.298Z,52.00
2017-06-29T16:06:25.649Z,52.66
2017-06-29T16:08:54.521Z,52.90
2017-06-29T16:11:22.894Z,53.28
2017-06-29T16:13:51.246Z,54.55
2017-06-29T16:16:20.007Z,55.23
2017-06-29T16:18:48.376Z,55.69
2017-06-29T16:21:17.490Z,55.31
2017-06-29T16:23:46.098Z,55.77
2017-06-29T16:26:14.476Z,56.17
2017-06-29T16:28:42.829Z,56.25
2017-06-29T16:31:11.623Z,56.49
2017-06-29T16:33:39.966Z,56.57
2017-06-29T16:36:08.342Z,58.46
2017-06-29T16:38:37.005Z,60.85
2017-06-29T16:41:05.362Z,62.33
2017-06-29T16:43:33.707Z,63.65
2017-06-29T16:46:02.362Z,64.24
2017-06-29T16:48:30.751Z,64.65
2017-06-29T16:50:59.130Z,65.67
2017-06-29T16:53:28.088Z,64.33
2017-06-29T16:55:56.452Z,65.15
2017-06-29T16:58:24.874Z,65.64
2017-06-29T17:00:53.718Z,66.27
2017-06-29T17:03:22.071Z,66.78
2017-06-29T17:05:51.232Z,66.79
2017-06-29T17:08:19.976Z,67.84
2017-06-29T17:10:48.323Z,68.11
2017-06-29T17:13:16.680Z,68.27
2017-06-29T17:15:45.812Z,67.96
2017-06-29T17:18:14.145Z,67.35
2017-06-29T17:20:42.482Z,67.80
2017-06-29T17:23:11.135Z,67.83
2017-06-29T17:25:39.498Z,68.08
2017-06-29T17:28:07.903Z,68.87
2017-06-29T17:30:36.602Z,68.16
2017-06-29T17:33:05.722Z,69.17
2017-06-29T17:35:34.066Z,70.57
2017-06-29T17:38:02.986Z,69.29
2017-06-29T17:40:31.324Z,69.77
2017-06-29T17:42:59.682Z,69.22
2017-06-29T17:45:28.349Z,69.90
2017-06-29T17:47:56.698Z,70.26
2017-06-29T17:50:25.040Z,69.45
2017-06-29T17:52:53.803Z,70.08
2017-06-29T17:55:22.163Z,69.04
2017-06-29T17:57:50.499Z,69.16
2017-06-29T18:00:20.106Z,69.46
2017-06-29T18:02:48.451Z,69.42
2017-06-29T18:05:16.798Z,69.75
2017-06-29T18:07:45.586Z,69.96
2017-06-29T18:10:13.977Z,70.05
2017-06-29T18:12:42.349Z,71.57
2017-06-29T18:15:11.055Z,72.03
2017-06-29T18:17:39.454Z,70.55
2017-06-29T18:20:07.801Z,70.26
2017-06-29T18:22:36.776Z,72.44
2017-06-29T18:25:05.116Z,74.11
2017-06-29T18:27:33.462Z,71.78
2017-06-29T18:30:02.110Z,72.33
2017-06-29T18:32:30.462Z,70.95
2017-06-29T18:34:58.798Z,72.44
2017-06-29T18:37:27.550Z,73.26
2017-06-29T18:39:55.936Z,74.09
2017-06-29T18:42:25.124Z,74.96
2017-06-29T18:44:53.866Z,73.63
2017-06-29T18:47:22.210Z,73.87
2017-06-29T18:49:50.558Z,73.69
2017-06-29T18:52:19.241Z,73.62
2017-06-29T18:54:47.651Z,74.40
2017-06-29T18:57:16.749Z,74.80
2017-06-29T18:59:45.549Z,74.07
2017-06-29T19:02:13.953Z,74.32
2017-06-29T19:04:42.310Z,73.65
2017-06-29T19:07:11.204Z,74.51
2017-06-29T19:09:39.578Z,74.72
2017-06-29T19:12:07.931Z,74.22
2017-06-29T19:14:36.601Z,73.60
2017-06-29T19:17:04.940Z,74.63
2017-06-29T19:19:33.281Z,73.86
2017-06-29T19:22:02.919Z,73.24
2017-06-29T19:24:31.296Z,73.95
2017-06-29T19:26:59.656Z,74.37
2017-06-29T19:29:28.567Z,74.20
2017-06-29T19:31:56.923Z,72.65
2017-06-29T19:34:26.051Z,73.40
2017-06-29T19:36:54.671Z,73.02
2017-06-29T19:39:23.028Z,72.43
2017-06-29T19:41:51.431Z,72.96
2017-06-29T19:44:20.128Z,73.75
2017-06-29T19:46:48.471Z,72.81
2017-06-29T19:49:16.881Z,73.30
2017-06-29T19:51:45.730Z,73.19
2017-06-29T19:54:14.073Z,72.92
2017-06-29T19:56:43.169Z,72.61
2017-06-29T19:59:12.533Z,72.89
2017-06-29T20:01:40.863Z,73.32
2017-06-29T20:04:09.234Z,73.17
2017-06-29T20:06:37.848Z,73.81
2017-06-29T20:09:06.196Z,74.42
2017-06-29T20:11:35.298Z,73.75
2017-06-29T20:14:04.241Z,73.99
2017-06-29T20:16:32.643Z,73.02
2017-06-29T20:19:01.002Z,72.33
2017-06-29T20:21:29.757Z,72.50
2017-06-29T20:23:58.172Z,74.19
2017-06-29T20:26:26.583Z,74.20
2017-06-29T20:30:13.620Z,73.73
2017-06-29T20:32:41.972Z,74.10
2017-06-29T20:35:10.309Z,74.40
2017-06-29T20:37:39.064Z,74.11
2017-06-29T20:40:07.409Z,74.76
2017-06-29T20:42:35.758Z,74.41
2017-06-29T20:45:04.411Z,75.20
2017-06-29T20:47:33.506Z,74.90
2017-06-29T20:50:02.611Z,74.83
2017-06-29T20:52:31.454Z,74.85
2017-06-29T20:54:59.814Z,73.92
2017-06-29T20:57:28.160Z,74.82
2017-06-29T20:59:56.785Z,75.29
2017-06-29T21:02:25.108Z,76.24
2017-06-29T21:04:53.453Z,75.56
2017-06-29T21:07:22.187Z,76.84
2017-06-29T21:09:50.547Z,76.10
2017-06-29T21:12:18.925Z,76.39
2017-06-29T21:14:48.506Z,75.66
2017-06-29T21:17:16.870Z,75.77
2017-06-29T21:19:45.230Z,76.18
2017-06-29T21:22:13.864Z,76.57
2017-06-29T21:24:42.212Z,76.97
2017-06-29T21:27:11.262Z,76.90
2017-06-29T21:29:40.261Z,77.26
2017-06-29T21:32:08.631Z,78.12
2017-06-29T21:34:37.737Z,78.51
2017-06-29T21:37:06.594Z,78.46
2017-06-29T21:39:35.282Z,78.89
2017-06-29T21:42:03.649Z,78.99
2017-06-29T21:44:32.288Z,79.10
2017-06-29T21:47:00.637Z,79.37
2017-06-29T21:49:28.992Z,78.65
2017-06-29T21:51:57.604Z,79.37
2017-06-29T21:54:25.932Z,79.17
2017-06-29T21:56:54.264Z,79.17
2017-06-29T21:59:23.649Z,79.54
2017-06-29T22:01:51.968Z,80.11
2017-06-29T22:04:20.329Z,79.79
2017-06-29T22:06:49.114Z,78.62
2017-06-29T22:09:17.458Z,78.63
2017-06-29T22:11:45.796Z,78.04
2017-06-29T22:14:14.429Z,77.89
2017-06-29T22:16:42.786Z,77.52
2017-06-29T22:19:11.141Z,78.67
2017-06-29T22:21:40.154Z,79.70
2017-06-29T22:24:08.484Z,78.82
2017-06-29T22:26:36.828Z,77.90
2017-06-29T22:29:05.667Z,78.27
2017-06-29T22:31:34.026Z,77.84
2017-06-29T22:34:02.404Z,77.27
2017-06-29T22:36:31.144Z,76.67
2017-06-29T22:38:59.492Z,76.69
2017-06-29T22:41:27.818Z,76.83
2017-06-29T22:43:56.577Z,76.60
2017-06-29T22:46:25.135Z,75.54
2017-06-29T22:48:54.258Z,76.18
2017-06-29T22:51:23.251Z,76.49
2017-06-29T22:53:51.617Z,75.85
2017-06-29T22:56:19.975Z,75.85
2017-06-29T22:58:48.599Z,75.52
2017-06-29T23:01:16.954Z,76.66
2017-06-29T23:03:45.314Z,76.21
2017-06-29T23:06:14.850Z,76.03
2017-06-29T23:08:43.237Z,76.20
2017-06-29T23:11:11.574Z,77.16
2017-06-29T23:13:40.311Z,76.81
2017-06-29T23:16:08.646Z,76.92
2017-06-29T23:18:36.984Z,76.80
2017-06-29T23:21:05.836Z,76.88
2017-06-29T23:23:34.154Z,78.05
2017-06-29T23:26:02.478Z,76.62
2017-06-29T23:28:31.222Z,77.00
2017-06-29T23:30:59.540Z,77.29
2017-06-29T23:33:27.876Z,77.41
2017-06-29T23:35:56.572Z,77.09
2017-06-29T23:38:24.910Z,77.94
2017-06-29T23:40:53.491Z,78.29
2017-06-29T23:43:22.148Z,78.85
2017-06-29T23:45:50.507Z,77.96
2017-06-29T23:48:18.829Z,77.48
2017-06-29T23:50:47.658Z,78.00
2017-06-29T23:53:15.991Z,77.17
2017-06-29T23:55:44.327Z,77.97
2017-06-29T23:58:13.002Z,77.85
